createdAt,value
2019-04-19T00:01:15.891Z,9.40
2019-04-19T00:06:23.281Z,9.20
2019-04-19T00:09:03.858Z,9.10
2019-04-19T00:16:15.064Z,9.10
2019-04-19T00:18:55.839Z,9.00
2019-04-19T00:21:30.384Z,9.00
2019-04-19T00:23:47.955Z,8.90
2019-04-19T00:26:14.815Z,8.90
2019-04-19T00:28:51.375Z,9.00
2019-04-19T00:31:29.572Z,9.00
2019-04-19T00:33:48.507Z,9.00
2019-04-19T00:36:16.469Z,8.90
2019-04-19T00:38:57.687Z,8.90
2019-04-19T00:41:36.992Z,8.90
2019-04-19T00:46:50.925Z,8.70
2019-04-19T00:49:12.351Z,8.60
2019-04-19T00:51:43.249Z,8.50
2019-04-19T00:54:24.897Z,8.40
2019-04-19T00:56:56.017Z,8.40
2019-04-19T00:59:18.285Z,8.30
2019-04-19T01:01:55.482Z,8.20
2019-04-19T01:04:20.466Z,8.20
2019-04-19T01:06:50.853Z,8.20
2019-04-19T01:09:31.025Z,8.10
2019-04-19T01:12:04.288Z,8.10
2019-04-19T01:14:31.237Z,8.00
2019-04-19T01:17:04.713Z,7.90
2019-04-19T01:19:19.438Z,7.90
2019-04-19T01:21:47.512Z,7.90
2019-04-19T01:24:19.872Z,7.90
2019-04-19T01:29:19.428Z,7.70
2019-04-19T01:31:48.692Z,7.60
2019-04-19T01:34:20.845Z,7.60
2019-04-19T01:36:48.439Z,7.60
2019-04-19T01:39:29.039Z,7.60
2019-04-19T01:41:58.195Z,7.50
2019-04-19T01:47:09.872Z,7.40
2019-04-19T01:49:49.169Z,7.50
2019-04-19T01:52:30.264Z,7.60
2019-04-19T01:54:50.354Z,7.70
2019-04-19T01:57:08.038Z,7.60
2019-04-19T01:59:40.607Z,7.60
2019-04-19T02:02:09.626Z,7.70
2019-04-19T02:04:37.685Z,7.50
2019-04-19T02:07:15.873Z,7.30
2019-04-19T02:09:54.378Z,7.10
2019-04-19T02:12:22.420Z,7.00
2019-04-19T02:14:48.245Z,7.10
2019-04-19T02:17:11.572Z,7.20
2019-04-19T02:22:14.329Z,7.30
2019-04-19T02:24:45.274Z,7.10
2019-04-19T02:27:10.088Z,6.90
2019-04-19T02:29:38.422Z,6.70
2019-04-19T02:32:29.860Z,6.80
2019-04-19T02:37:34.539Z,6.90
2019-04-19T02:45:03.727Z,6.50
2019-04-19T02:50:04.898Z,6.40
2019-04-19T02:53:12.519Z,6.30
2019-04-19T03:00:37.681Z,6.20
2019-04-19T03:03:03.103Z,6.10
2019-04-19T03:07:36.550Z,6.10
2019-04-19T03:10:12.845Z,6.00
2019-04-19T03:13:00.122Z,6.00
2019-04-19T03:15:26.310Z,6.00
2019-04-19T03:20:28.610Z,5.90
2019-04-19T03:22:59.361Z,5.90
2019-04-19T03:25:25.119Z,5.90
2019-04-19T03:27:52.133Z,5.90
2019-04-19T03:36:21.648Z,5.90
2019-04-19T03:38:48.465Z,6.00
2019-04-19T03:41:55.022Z,6.00
2019-04-19T03:44:10.397Z,5.90
2019-04-19T03:49:19.504Z,5.80
2019-04-19T03:51:41.021Z,5.80
2019-04-19T03:54:14.180Z,5.80
2019-04-19T03:58:53.067Z,5.60
2019-04-19T04:01:47.956Z,5.50
2019-04-19T04:04:18.132Z,5.50
2019-04-19T04:06:44.203Z,5.50
2019-04-19T04:09:18.400Z,5.40
2019-04-19T04:14:32.059Z,5.40
2019-04-19T04:16:58.336Z,5.40
2019-04-19T04:19:27.306Z,5.60
2019-04-19T04:21:57.301Z,5.70
2019-04-19T04:24:32.466Z,5.60
2019-04-19T04:27:05.801Z,5.60
2019-04-19T04:32:08.580Z,5.50
2019-04-19T04:34:43.421Z,5.50
2019-04-19T04:37:13.631Z,5.60
2019-04-19T04:39:28.314Z,5.70
2019-04-19T04:42:11.151Z,5.70
2019-04-19T04:44:57.432Z,5.60
2019-04-19T04:50:06.067Z,5.70
2019-04-19T04:52:23.703Z,5.60
2019-04-19T04:57:28.589Z,5.20
2019-04-19T04:59:55.219Z,5.10
2019-04-19T05:02:39.943Z,5.20
2019-04-19T05:07:41.906Z,5.40
2019-04-19T05:10:09.339Z,5.60
2019-04-19T05:12:58.957Z,5.70
2019-04-19T05:17:46.037Z,6.00
2019-04-19T05:20:14.347Z,6.10
2019-04-19T05:22:32.632Z,6.20
2019-04-19T05:25:19.450Z,6.30
2019-04-19T05:27:45.490Z,6.40
2019-04-19T05:29:55.824Z,6.40
2019-04-19T05:35:25.351Z,6.60
2019-04-19T05:37:58.544Z,6.80
2019-04-19T05:40:41.265Z,6.90
2019-04-19T05:43:46.391Z,7.00
2019-04-19T05:46:03.732Z,7.10
2019-04-19T05:48:21.309Z,7.20
2019-04-19T05:53:19.069Z,7.40
2019-04-19T05:55:36.973Z,7.50
2019-04-19T05:58:16.544Z,7.70
2019-04-19T06:00:51.362Z,7.80
2019-04-19T06:03:19.017Z,8.00
2019-04-19T06:06:03.298Z,8.10
2019-04-19T06:08:15.519Z,8.30
2019-04-19T06:10:45.742Z,8.70
2019-04-19T06:13:11.960Z,9.30
2019-04-19T06:16:02.291Z,9.90
2019-04-19T06:18:27.053Z,10.50
2019-04-19T06:21:04.226Z,11.10
2019-04-19T06:23:38.386Z,11.70
2019-04-19T06:26:35.119Z,12.50
2019-04-19T06:28:34.584Z,12.80
2019-04-19T06:31:03.094Z,13.50
2019-04-19T06:33:31.824Z,13.70
2019-04-19T06:36:07.643Z,13.80
2019-04-19T06:38:35.465Z,14.00
2019-04-19T06:41:10.871Z,14.00
2019-04-19T06:43:47.552Z,13.90
2019-04-19T06:48:36.936Z,14.70
2019-04-19T06:51:14.667Z,15.10
2019-04-19T06:53:41.020Z,14.90
2019-04-19T06:56:15.475Z,15.30
2019-04-19T06:58:44.385Z,15.60
2019-04-19T07:01:18.150Z,16.10
2019-04-19T07:06:21.570Z,17.40
2019-04-19T07:11:28.615Z,17.70
2019-04-19T07:13:48.683Z,18.00
2019-04-19T07:16:32.995Z,17.90
2019-04-19T07:21:29.064Z,17.70
2019-04-19T07:23:54.700Z,18.40
2019-04-19T07:26:28.442Z,19.10
2019-04-19T07:28:38.546Z,19.50
2019-04-19T07:31:09.762Z,19.80
2019-04-19T07:33:45.442Z,20.30
2019-04-19T07:36:40.198Z,20.30
2019-04-19T07:38:59.480Z,20.10
2019-04-19T07:41:26.745Z,20.50
2019-04-19T07:43:56.177Z,20.50
2019-04-19T07:46:37.049Z,21.00
2019-04-19T07:48:45.417Z,21.20
2019-04-19T07:51:21.995Z,21.30
2019-04-19T07:53:47.761Z,21.60
2019-04-19T07:56:28.881Z,21.30
2019-04-19T08:01:45.432Z,22.00
2019-04-19T08:04:24.557Z,22.10
2019-04-19T08:09:13.659Z,22.60
2019-04-19T08:11:46.517Z,22.70
2019-04-19T08:14:17.502Z,23.00
2019-04-19T08:17:26.359Z,23.10
2019-04-19T08:28:56.322Z,23.70
2019-04-19T08:31:18.131Z,23.70
2019-04-19T08:33:46.716Z,24.00
2019-04-19T08:36:24.126Z,24.00
2019-04-19T08:39:05.395Z,23.90
2019-04-19T08:41:25.595Z,23.90
2019-04-19T08:43:59.160Z,23.90
2019-04-19T08:46:26.408Z,23.40
2019-04-19T08:49:01.188Z,23.30
2019-04-19T08:51:38.988Z,22.80
2019-04-19T08:56:46.048Z,23.50
2019-04-19T08:59:35.930Z,23.70
2019-04-19T09:01:59.138Z,23.90
2019-04-19T09:09:32.902Z,24.50
2019-04-19T09:11:58.902Z,24.20
2019-04-19T09:17:01.088Z,24.30
2019-04-19T09:19:44.125Z,24.00
2019-04-19T09:26:56.362Z,24.10
2019-04-19T09:29:33.670Z,24.00
2019-04-19T09:32:06.654Z,24.10
2019-04-19T09:37:11.257Z,24.70
2019-04-19T09:42:07.726Z,24.80
2019-04-19T09:44:38.256Z,24.70
2019-04-19T09:47:02.465Z,24.50
2019-04-19T09:49:46.371Z,24.30
2019-04-19T09:52:27.292Z,24.60
2019-04-19T09:54:51.217Z,24.60
2019-04-19T09:59:58.026Z,23.90
2019-04-19T10:02:28.959Z,23.80
2019-04-19T10:04:53.024Z,23.70
2019-04-19T10:09:56.651Z,23.20
2019-04-19T10:14:48.306Z,24.10
2019-04-19T10:17:24.785Z,23.70
2019-04-19T10:19:54.901Z,24.00
2019-04-19T10:24:54.050Z,24.70
2019-04-19T10:29:58.290Z,25.60
2019-04-19T10:32:46.495Z,25.40
2019-04-19T10:35:15.521Z,25.20
2019-04-19T10:37:44.070Z,24.80
2019-04-19T10:40:13.558Z,24.60
2019-04-19T10:42:43.157Z,23.80
2019-04-19T10:45:14.139Z,23.10
2019-04-19T10:47:44.083Z,22.20
2019-04-19T10:50:27.248Z,21.40
2019-04-19T10:52:43.736Z,20.80
2019-04-19T10:55:12.500Z,20.50
2019-04-19T10:57:41.113Z,20.20
2019-04-19T11:00:11.366Z,20.10
2019-04-19T11:02:40.106Z,20.10
2019-04-19T11:05:11.181Z,20.20
2019-04-19T11:07:41.565Z,20.20
2019-04-19T11:10:11.854Z,20.20
2019-04-19T11:13:00.710Z,20.20
2019-04-19T11:15:30.466Z,19.90
2019-04-19T11:20:35.371Z,19.70
2019-04-19T11:22:58.095Z,19.80
2019-04-19T11:25:26.520Z,19.80
2019-04-19T11:27:56.452Z,19.90
2019-04-19T11:30:26.699Z,19.90
2019-04-19T11:32:55.101Z,19.90
2019-04-19T11:35:25.438Z,19.90
2019-04-19T11:37:55.038Z,19.90
2019-04-19T11:40:24.910Z,20.00
2019-04-19T11:42:53.396Z,20.10
2019-04-19T11:45:21.954Z,20.10
2019-04-19T11:52:50.196Z,20.00
2019-04-19T11:55:18.604Z,19.90
2019-04-19T11:57:48.890Z,19.80
2019-04-19T12:00:36.052Z,19.80
2019-04-19T12:03:06.307Z,20.00
2019-04-19T12:05:35.927Z,20.00
2019-04-19T12:08:04.522Z,20.00
2019-04-19T12:10:34.355Z,19.90
2019-04-19T12:13:03.414Z,20.00
2019-04-19T12:15:33.864Z,20.10
2019-04-19T12:20:31.127Z,20.00
2019-04-19T12:22:59.995Z,20.00
2019-04-19T12:27:57.357Z,20.00
2019-04-19T12:30:27.298Z,20.10
2019-04-19T12:32:57.434Z,20.10
2019-04-19T12:35:27.346Z,20.20
2019-04-19T12:40:25.786Z,20.00
2019-04-19T12:42:54.257Z,19.90
2019-04-19T12:50:21.860Z,20.40
2019-04-19T12:52:51.726Z,20.30
2019-04-19T12:55:21.951Z,20.20
2019-04-19T12:57:52.186Z,20.20
2019-04-19T13:00:23.522Z,20.30
2019-04-19T13:02:58.047Z,20.20
2019-04-19T13:05:28.299Z,20.20
2019-04-19T13:07:56.895Z,20.20
2019-04-19T13:12:53.987Z,20.30
2019-04-19T13:15:23.772Z,20.30
2019-04-19T13:17:53.949Z,20.40
2019-04-19T13:20:27.528Z,20.30
2019-04-19T13:22:52.792Z,20.30
2019-04-19T13:25:21.501Z,20.20
2019-04-19T13:27:54.428Z,20.10
2019-04-19T13:30:30.854Z,20.20
2019-04-19T13:32:52.332Z,20.30
2019-04-19T13:37:51.502Z,20.40
2019-04-19T13:40:28.316Z,20.30
2019-04-19T13:42:58.618Z,20.40
2019-04-19T13:45:31.317Z,20.50
2019-04-19T13:47:57.152Z,20.50
2019-04-19T13:50:32.194Z,20.60
2019-04-19T13:52:56.937Z,20.60
2019-04-19T13:55:26.556Z,20.70
2019-04-19T13:57:55.711Z,20.50
2019-04-19T14:00:44.731Z,20.50
2019-04-19T14:03:13.806Z,20.40
2019-04-19T14:05:43.790Z,20.40
2019-04-19T14:08:13.182Z,20.40
2019-04-19T14:13:10.580Z,20.60
2019-04-19T14:18:09.304Z,20.50
2019-04-19T14:20:45.130Z,20.50
2019-04-19T14:23:08.069Z,20.60
2019-04-19T14:25:37.121Z,20.60
2019-04-19T14:28:07.245Z,20.60
2019-04-19T14:30:35.908Z,20.60
2019-04-19T14:35:32.725Z,20.50
2019-04-19T14:38:01.416Z,20.40
2019-04-19T14:40:31.117Z,20.50
2019-04-19T14:43:00.403Z,20.60
2019-04-19T14:45:30.405Z,20.60
2019-04-19T14:47:59.259Z,20.60
2019-04-19T14:52:59.235Z,20.70
2019-04-19T14:55:27.903Z,20.60
2019-04-19T14:57:56.308Z,20.50
2019-04-19T15:00:27.248Z,20.50
2019-04-19T15:02:58.715Z,20.60
2019-04-19T15:05:29.892Z,20.50
2019-04-19T15:12:56.661Z,20.70
2019-04-19T15:15:26.729Z,20.60
2019-04-19T15:17:55.416Z,20.60
2019-04-19T15:22:52.928Z,20.50
2019-04-19T15:25:23.522Z,20.50
2019-04-19T15:27:52.914Z,20.50
2019-04-19T15:32:50.641Z,20.40
2019-04-19T15:35:19.599Z,20.40
2019-04-19T15:37:49.738Z,20.40
2019-04-19T15:40:22.452Z,20.40
2019-04-19T15:45:22.932Z,20.40
2019-04-19T15:47:52.875Z,20.30
2019-04-19T15:50:22.383Z,20.30
2019-04-19T15:52:51.030Z,20.30
2019-04-19T15:57:48.713Z,20.30
2019-04-19T16:00:22.340Z,20.20
2019-04-19T16:05:28.413Z,20.10
2019-04-19T16:08:16.003Z,20.10
2019-04-19T16:11:02.695Z,20.10
2019-04-19T16:13:31.938Z,20.00
2019-04-19T16:18:48.330Z,19.90
2019-04-19T16:21:39.639Z,19.90
2019-04-19T16:24:00.964Z,19.90
2019-04-19T16:26:30.875Z,19.90
2019-04-19T16:28:59.897Z,19.90
2019-04-19T16:31:28.696Z,19.80
2019-04-19T16:36:27.011Z,19.80
2019-04-19T16:38:56.598Z,19.70
2019-04-19T16:41:25.232Z,19.70
2019-04-19T16:43:53.764Z,19.70
2019-04-19T16:46:26.145Z,19.60
2019-04-19T16:48:52.707Z,19.60
2019-04-19T16:51:32.110Z,19.50
2019-04-19T16:53:51.905Z,19.40
2019-04-19T16:56:21.642Z,19.30
2019-04-19T16:58:50.935Z,19.20
2019-04-19T17:01:20.769Z,19.20
2019-04-19T17:03:49.967Z,19.20
2019-04-19T17:06:18.630Z,19.10
2019-04-19T17:08:48.280Z,19.10
2019-04-19T17:11:17.662Z,19.00
2019-04-19T17:13:47.160Z,19.00
2019-04-19T17:16:20.181Z,19.00
2019-04-19T17:19:06.543Z,18.90
2019-04-19T17:21:47.251Z,18.80
2019-04-19T17:24:05.490Z,18.80
2019-04-19T17:26:34.947Z,18.70
2019-04-19T17:29:04.587Z,18.60
2019-04-19T17:34:02.787Z,18.50
2019-04-19T17:36:32.334Z,18.40
2019-04-19T17:39:02.203Z,18.30
2019-04-19T17:46:28.543Z,17.90
2019-04-19T17:51:25.611Z,17.50
2019-04-19T17:53:54.013Z,17.30
2019-04-19T17:58:52.174Z,17.00
2019-04-19T18:01:20.637Z,16.90
2019-04-19T18:06:18.299Z,16.70
2019-04-19T18:08:48.717Z,16.50
2019-04-19T18:11:22.662Z,16.30
2019-04-19T18:16:36.573Z,16.10
2019-04-19T18:19:05.522Z,16.10
2019-04-19T18:21:37.575Z,16.10
2019-04-19T18:24:10.442Z,16.30
2019-04-19T18:26:36.611Z,16.40
2019-04-19T18:29:09.640Z,16.40
2019-04-19T18:31:40.759Z,16.40
2019-04-19T18:34:10.265Z,16.40
2019-04-19T18:36:41.868Z,16.20
2019-04-19T18:39:08.456Z,16.10
2019-04-19T18:44:16.464Z,15.90
2019-04-19T18:46:36.333Z,15.80
2019-04-19T18:49:05.539Z,15.70
2019-04-19T18:51:38.520Z,15.70
2019-04-19T18:54:15.634Z,15.60
2019-04-19T18:56:34.413Z,15.60
2019-04-19T18:59:12.019Z,15.60
2019-04-19T19:01:37.860Z,15.50
2019-04-19T19:04:25.972Z,15.50
2019-04-19T19:06:52.945Z,15.60
2019-04-19T19:09:34.390Z,15.60
2019-04-19T19:11:59.476Z,15.50
2019-04-19T19:14:23.461Z,15.50
2019-04-19T19:16:54.203Z,15.40
2019-04-19T19:22:12.806Z,15.20
2019-04-19T19:27:17.086Z,15.10
2019-04-19T19:29:41.212Z,15.00
2019-04-19T19:32:13.009Z,15.00
2019-04-19T19:34:41.929Z,14.90
2019-04-19T19:37:13.617Z,14.70
2019-04-19T19:42:44.659Z,14.60
2019-04-19T19:44:52.138Z,14.50
2019-04-19T19:47:58.988Z,14.40
2019-04-19T19:52:51.719Z,14.40
2019-04-19T19:55:17.368Z,14.30
2019-04-19T19:57:46.549Z,14.20
2019-04-19T20:00:13.581Z,14.20
2019-04-19T20:02:45.420Z,14.20
2019-04-19T20:05:05.143Z,14.10
2019-04-19T20:10:08.622Z,13.80
2019-04-19T20:15:11.030Z,13.70
2019-04-19T20:22:43.558Z,13.50
2019-04-19T20:30:09.948Z,13.30
2019-04-19T20:35:15.141Z,13.30
2019-04-19T20:37:38.116Z,13.30
2019-04-19T20:40:15.382Z,13.20
2019-04-19T20:43:00.000Z,13.10
2019-04-19T20:45:21.962Z,13.00
2019-04-19T20:47:46.198Z,12.90
2019-04-19T20:50:21.224Z,12.80
2019-04-19T20:52:51.467Z,12.70
2019-04-19T20:55:29.299Z,12.80
2019-04-19T20:57:59.101Z,12.80
2019-04-19T21:00:33.457Z,12.70
2019-04-19T21:03:01.699Z,12.60
2019-04-19T21:05:37.232Z,12.60
2019-04-19T21:08:07.126Z,12.50
2019-04-19T21:10:31.784Z,12.40
2019-04-19T21:13:04.563Z,12.30
2019-04-19T21:15:34.832Z,12.20
2019-04-19T21:18:01.286Z,12.10
2019-04-19T21:20:31.211Z,12.10
2019-04-19T21:23:08.541Z,12.10
2019-04-19T21:28:03.082Z,12.00
2019-04-19T21:30:31.332Z,11.90
2019-04-19T21:33:04.707Z,11.90
2019-04-19T21:35:31.325Z,11.80
2019-04-19T21:38:05.727Z,11.70
2019-04-19T21:40:36.203Z,11.60
2019-04-19T21:43:04.486Z,11.60
2019-04-19T21:45:37.856Z,11.50
2019-04-19T21:48:01.262Z,11.50
2019-04-19T21:50:36.901Z,11.50
2019-04-19T21:58:07.017Z,11.40
2019-04-19T22:00:37.144Z,11.30
2019-04-19T22:03:13.969Z,11.20
2019-04-19T22:05:37.563Z,11.10
2019-04-19T22:08:06.492Z,11.10
2019-04-19T22:10:39.949Z,11.00
2019-04-19T22:13:06.322Z,11.20
2019-04-19T22:15:42.287Z,11.20
2019-04-19T22:23:06.456Z,11.10
2019-04-19T22:28:03.621Z,10.80
2019-04-19T22:30:38.814Z,10.60
2019-04-19T22:38:07.261Z,10.40
2019-04-19T22:40:30.692Z,10.30
2019-04-19T22:43:04.850Z,10.30
2019-04-19T22:45:30.534Z,10.30
2019-04-19T22:48:07.650Z,10.20
2019-04-19T22:50:32.895Z,10.20
2019-04-19T22:53:00.730Z,10.10
2019-04-19T22:55:42.628Z,10.00
2019-04-19T23:00:34.453Z,9.90
2019-04-19T23:08:06.202Z,9.80
2019-04-19T23:10:45.137Z,9.80
2019-04-19T23:15:35.972Z,9.70
2019-04-19T23:18:09.920Z,9.60
2019-04-19T23:20:35.137Z,9.60
2019-04-19T23:23:07.503Z,9.50
2019-04-19T23:28:16.454Z,9.40
2019-04-19T23:30:34.771Z,9.40
2019-04-19T23:33:07.104Z,9.30
2019-04-19T23:35:36.639Z,9.30
2019-04-19T23:38:03.596Z,9.20
2019-04-19T23:40:35.819Z,9.20
2019-04-19T23:43:02.139Z,9.20
2019-04-19T23:45:36.854Z,9.20
2019-04-19T23:48:00.815Z,9.20
2019-04-19T23:50:33.599Z,9.20
2019-04-19T23:53:02.222Z,9.10
2019-04-19T23:55:30.542Z,9.10
2019-04-19T23:57:59.872Z,9.00
